Latest Weather Observations for Richmond

IDN60901

Issued at 10:11 am EDT Friday 27 February 2015 (issued every 10 minutes, with the page automatically refreshed every 10 minutes)

About weather observations | Map of Sydney area stations | Latest observations for Sydney area | Other Formats
Station Details ID: 067105 Name: RICHMOND RAAF Lat: -33.60 Lon: 150.78 Height: 19.0 m
Data from the previous 72 hours. | See also: Recent months at Richmond
Date/Time
EDT
Tmp

°C
App
Tmp
°C
Dew
Point
°C
Rel
Hum
%
Delta-T

°C
Wind Press
QNH
hPa
Press
MSL
hPa
Rain
since
9 am
mm
Dir
 
Spd
km/h
Gust
km/h
Spd
kts
Gust
kts
27/10:00am 23.2 24.3 18.9 77 2.7 SW 11 17 6 9 1011.6 1011.5 0.0
27/09:30am 22.4 23.8 18.6 79 2.4 SSW 9 13 5 7 1011.6 1011.5 0.0
27/09:00am 22.1 23.7 18.3 79 2.4 SSW 7 11 4 6 1011.3 1011.2 1.0
27/08:30am 21.3 22.6 18.5 84 1.8 SSW 9 15 5 8 1011.1 1011.0 1.0
27/08:00am 19.8 22.7 18.3 91 0.9 CALM 0 0 0 0 1011.0 1010.9 1.0
27/07:30am 19.3 21.0 18.1 93 0.7 WNW 6 9 3 5 1010.7 1010.6 1.0
27/07:00am 18.9 20.8 17.6 92 0.8 SSE 4 7 2 4 1010.3 1010.2 1.0
27/06:30am 18.7 21.1 17.0 90 1.0 CALM 0 0 0 0 1009.8 1009.7 1.0
27/05:30am 19.0 21.5 17.3 90 1.0 CALM 0 0 0 0 1009.4 1009.3 1.0
27/05:00am 18.9 20.7 17.4 91 0.9 SSE 4 7 2 4 1009.2 1009.1 1.0
27/04:30am 18.8 21.1 17.6 93 0.7 S 2 9 1 5 1009.0 1008.9 1.0
27/04:00am 18.4 21.1 17.8 96 0.4 CALM 0 0 0 0 1008.8 1008.7 1.0
27/03:30am 18.4 21.0 17.4 94 0.6 CALM 0 0 0 0 1008.8 1008.7 1.0
27/03:00am 18.3 19.5 17.3 94 0.6 WSW 7 9 4 5 1008.8 1008.7 1.0
27/02:30am 18.4 19.7 17.2 93 0.7 WSW 6 9 3 5 1009.0 1008.9 1.0
27/02:00am 18.8 20.1 17.6 93 0.7 WSW 7 9 4 5 1009.2 1009.1 1.0
27/01:30am 19.1 20.2 18.1 94 0.6 WSW 9 11 5 6 1009.4 1009.3 1.0
27/01:00am 19.6 21.9 18.6 94 0.6 SW 4 9 2 5 1009.6 1009.5 1.0
27/12:30am 19.8 21.8 19.1 96 0.4 SE 7 9 4 5 1009.7 1009.6 1.0
 
Date/Time
EDT
Tmp

°C
App
Tmp
°C
Dew
Point
°C
Rel
Hum
%
Delta-T

°C
Wind Press
QNH
hPa
Press
MSL
hPa
Rain
since
9 am
mm
Dir
 
Spd
km/h
Gust
km/h
Spd
kts
Gust
kts
26/11:30pm 20.2 21.9 19.4 95 0.5 NW 9 11 5 6 1008.9 1008.8 1.0
26/11:00pm 20.1 22.2 19.3 95 0.5 WNW 7 9 4 5 1009.4 1009.3 1.0
26/10:30pm 20.3 22.5 19.1 93 0.8 WSW 6 9 3 5 1009.7 1009.6 1.0
26/10:00pm 21.0 23.6 20.0 94 0.6 S 6 9 3 5 1010.0 1009.9 1.0
26/09:30pm 21.2 23.3 20.2 94 0.6 SE 9 9 5 5 1009.7 1009.6 1.0
26/09:00pm 21.1 24.8 19.9 93 0.8 CALM 0 9 0 5 1009.4 1009.3 1.0
26/08:30pm 21.0 22.9 19.8 93 0.8 N 9 11 5 6 1008.7 1008.6 1.0
26/08:00pm 21.1 24.2 19.6 91 1.0 NW 2 6 1 3 1008.2 1008.1 1.0
26/07:30pm 21.0 23.1 19.3 90 1.1 N 7 9 4 5 1007.0 1006.9 1.0
26/07:00pm 21.4 22.6 19.1 87 1.5 WSW 11 15 6 8 1007.1 1007.0 1.0
26/06:30pm 21.2 22.5 19.3 89 1.2 WSW 11 17 6 9 1006.9 1006.8 1.0
26/05:30pm 21.7 23.5 19.6 88 1.3 W 9 11 5 6 1006.1 1006.0 1.0
26/05:00pm 22.6 24.2 19.2 81 2.2 W 9 13 5 7 1006.5 1006.4 0.4
26/04:30pm 23.0 24.2 19.8 82 2.1 W 13 17 7 9 1006.6 1006.5 0.2
26/04:00pm 23.6 24.4 19.1 76 2.9 NNW 13 19 7 10 1006.5 1006.4 0.2
26/03:30pm 25.2 26.9 19.3 70 3.8 NNE 9 15 5 8 1007.0 1006.9 0.2
26/03:00pm 25.6 26.9 19.3 68 4.1 NE 11 17 6 9 1007.3 1007.2 0.2
26/02:30pm 25.7 26.8 18.9 66 4.3 ENE 11 19 6 10 1007.3 1007.2 0.2
26/02:00pm 24.4 25.5 17.9 67 4.1 ENE 9 13 5 7 1007.8 1007.7 0.2
26/01:30pm 24.8 25.7 18.5 68 4.0 NE 11 19 6 10 1008.2 1008.1 0.2
26/01:00pm 23.9 25.4 18.1 70 3.6 NNE 7 15 4 8 1008.7 1008.6 0.2
26/12:30pm 24.2 25.7 18.8 72 3.4 N 9 15 5 8 1009.4 1009.3 0.2
26/12:00pm 23.1 24.3 18.2 74 3.1 N 9 15 5 8 1009.8 1009.7 0.0
26/11:30am 22.0 23.9 17.6 76 2.7 NE 4 9 2 5 1010.4 1010.3 0.0
26/11:10am 21.6 22.8 17.4 77 2.6 NNE 7 9 4 5 1010.8 1010.7 0.0
26/11:00am 21.7 24.0 17.7 78 2.5 N 2 9 1 5 1010.9 1010.8 0.0
26/10:30am 21.5 23.3 17.5 78 2.5 SSW 4 7 2 4 1011.0 1010.9 0.0
26/10:00am 21.0 22.4 17.4 80 2.2 W 6 9 3 5 1011.2 1011.1 0.0
26/09:30am 20.3 22.9 17.5 84 1.7 CALM 0 0 0 0 1011.2 1011.1 0.0
26/09:19am 20.1 22.7 17.5 85 1.6 CALM 0 0 0 0 1011.4 1011.3 0.0
26/09:00am 19.8 21.6 17.4 86 1.5 WSW 4 7 2 4 1011.4 1011.3 0.6
26/08:30am 19.2 20.7 17.5 90 1.0 SW 6 7 3 4 1011.2 1011.1 0.6
26/08:00am 18.8 20.3 17.5 92 0.8 SW 6 9 3 5 1010.9 1010.8 0.6
26/07:38am 18.7 20.1 17.4 92 0.8 WSW 6 9 3 5 1010.8 1010.7 0.6
26/07:30am 18.6 19.8 17.3 92 0.8 WSW 7 9 4 5 1010.8 1010.7 0.6
26/07:19am 18.6 19.8 17.3 92 0.8 W 7 9 4 5 1010.8 1010.7 0.6
26/07:00am 18.6 19.3 17.1 91 0.9 W 9 11 5 6 1010.8 1010.7 0.6
26/06:30am 18.9 19.6 17.0 89 1.1 WSW 9 11 5 6 1010.6 1010.5 0.6
26/06:00am 19.1 20.8 17.1 88 1.2 W 4 7 2 4 1010.5 1010.4 0.6
26/05:46am 19.0 20.3 17.1 89 1.2 WNW 6 7 3 4 1010.5 1010.4 0.6
26/05:34am 19.1 20.2 17.1 88 1.2 WSW 7 9 4 5 1010.5 1010.4 0.6
26/05:30am 19.2 20.3 17.0 87 1.3 W 7 9 4 5 1010.5 1010.4 0.6
26/05:00am 19.3 20.4 17.1 87 1.3 W 7 11 4 6 1010.4 1010.3 0.6
26/04:30am 19.4 20.5 17.0 86 1.5 W 7 9 4 5 1010.6 1010.5 0.6
26/04:00am 19.4 20.7 17.0 86 1.5 WSW 6 7 3 4 1010.8 1010.7 0.6
26/03:30am 19.3 21.7 17.1 87 1.3 CALM 0 6 0 3 1011.0 1010.9 0.6
26/03:00am 19.4 21.8 17.0 86 1.5 CALM 0 0 0 0 1011.2 1011.1 0.6
26/02:30am 19.4 21.8 17.0 86 1.5 CALM 0 0 0 0 1011.7 1011.6 0.6
26/02:00am 19.4 20.7 17.0 86 1.5 SSW 6 7 3 4 1012.0 1011.9 0.6
26/01:30am 19.4 20.6 16.8 85 1.6 SW 6 7 3 4 1012.3 1012.2 0.6
26/01:00am 19.6 20.5 16.6 83 1.8 WSW 7 9 4 5 1012.7 1012.6 0.6
26/12:30am 19.6 20.6 16.8 84 1.7 WSW 7 13 4 7 1013.0 1012.9 0.6
26/12:00am 19.9 19.8 16.9 83 1.8 WSW 13 15 7 8 1013.4 1013.3 0.6
 
Date/Time
EDT
Tmp

°C
App
Tmp
°C
Dew
Point
°C
Rel
Hum
%
Delta-T

°C
Wind Press
QNH
hPa
Press
MSL
hPa
Rain
since
9 am
mm
Dir
 
Spd
km/h
Gust
km/h
Spd
kts
Gust
kts
25/11:30pm 19.8 20.1 17.0 84 1.7 WSW 11 15 6 8 1013.5 1013.4 0.6
25/11:00pm 19.9 20.2 17.1 84 1.7 WSW 11 13 6 7 1013.9 1013.8 0.6
25/10:30pm 19.8 19.9 17.4 86 1.5 WSW 13 17 7 9 1014.2 1014.1 0.6
25/10:00pm 19.7 20.6 17.5 87 1.3 WSW 9 13 5 7 1014.1 1014.0 0.6
25/09:30pm 19.6 20.2 17.7 89 1.2 WSW 11 15 6 8 1014.4 1014.3 0.6
25/09:00pm 19.7 20.3 17.8 89 1.2 W 11 13 6 7 1014.4 1014.3 0.6
25/08:30pm 19.9 21.2 17.5 86 1.5 SSE 7 11 4 6 1014.0 1013.9 0.6
25/08:00pm 19.8 20.4 17.8 88 1.2 SSE 11 13 6 7 1013.9 1013.8 0.6
25/07:30pm 19.9 20.8 17.5 86 1.5 WSW 9 11 5 6 1014.6 1014.5 0.6
25/07:00pm 19.9 21.1 17.3 85 1.6 SW 7 9 4 5 1014.8 1014.7 0.6
25/06:30pm 20.6 21.5 17.6 83 1.8 SSE 9 17 5 9 1014.8 1014.7 0.6
25/06:20pm 20.5 22.3 18.3 87 1.4 WNW 6 11 3 6 1014.8 1014.7 0.6
25/06:05pm 21.0 22.7 17.2 79 2.3 W 4 9 2 5 1014.7 1014.6 0.6
25/06:00pm 21.2 23.2 17.8 81 2.1 WSW 4 9 2 5 1014.8 1014.7 0.6
25/05:30pm 22.1 23.2 16.6 71 3.3 SSE 6 15 3 8 1014.8 1014.7 0.6
25/05:00pm 21.8 23.4 17.8 78 2.5 SSW 6 11 3 6 1014.3 1014.2 0.6
25/04:30pm 21.2 21.4 17.6 80 2.2 SSW 13 17 7 9 1014.2 1014.1 0.6
25/04:00pm 21.7 21.0 17.3 76 2.7 SSE 17 22 9 12 1014.5 1014.4 0.6
25/03:30pm 21.7 21.2 16.9 74 2.9 S 15 20 8 11 1014.7 1014.6 0.6
25/03:00pm 21.9 20.5 17.1 74 2.9 S 20 28 11 15 1015.2 1015.1 0.6
25/02:30pm 21.8 20.6 17.6 77 2.6 SSE 20 28 11 15 1015.7 1015.6 0.6
25/02:00pm 21.1 20.3 18.1 83 1.9 S 19 30 10 16 1015.9 1015.8 0.6
25/01:30pm 20.8 20.3 19.1 90 1.1 S 20 28 11 15 1016.1 1016.0 0.6
25/01:26pm 20.6 20.0 18.9 90 1.1 S 20 35 11 19 1016.1 1016.0 0.6
25/01:01pm 20.6 20.4 19.3 92 0.8 S 19 30 10 16 1016.2 1016.1 0.6
25/01:00pm 20.6 20.4 19.3 92 0.8 S 19 30 10 16 1016.2 1016.1 0.6
25/12:44pm 20.8 20.5 19.5 92 0.8 S 20 32 11 17 1016.3 1016.2 0.6
25/12:30pm 20.7 20.3 19.4 92 0.8 S 20 26 11 14 1016.4 1016.3 0.6
25/12:26pm 20.6 19.7 19.1 91 0.9 S 22 30 12 16 1016.4 1016.3 0.6
25/12:25pm 20.6 19.7 19.1 91 0.9 S 22 30 12 16 1016.4 1016.3 0.6
25/12:15pm 20.7 20.2 19.2 91 0.9 S 20 32 11 17 1016.5 1016.4 0.6
25/12:00pm 21.2 21.5 19.7 91 1.0 S 17 22 9 12 1016.6 1016.5 0.4
25/11:58am 21.2 21.5 19.5 90 1.1 S 17 26 9 14 1016.5 1016.4 0.4
25/11:43am 21.6 21.0 18.8 84 1.8 S 20 30 11 16 1016.5 1016.4 0.0
25/11:30am 22.4 21.3 18.6 79 2.4 SSW 22 32 12 17 1016.5 1016.4 0.0
25/11:00am 24.1 23.1 19.6 76 2.9 SSW 24 33 13 18 1016.3 1016.2 0.0
25/10:30am 23.2 21.9 18.1 73 3.2 SSW 22 33 12 18 1016.0 1015.9 0.0
25/10:00am 24.2 23.4 17.9 68 3.9 S 19 26 10 14 1015.9 1015.8 0.0
25/09:30am 23.4 22.3 17.2 68 3.8 S 19 28 10 15 1015.7 1015.6 0.0
25/09:00am 23.2 22.8 17.2 69 3.7 SSW 15 24 8 13 1015.6 1015.5 0.0
25/08:30am 22.0 22.8 17.2 74 2.9 SW 9 15 5 8 1015.6 1015.5 0.0
25/08:00am 20.9 23.3 17.1 79 2.3 CALM 0 4 0 2 1015.5 1015.4 0.0
25/07:30am 20.6 22.9 16.8 79 2.3 CALM 0 0 0 0 1015.1 1015.0 0.0
25/07:00am 20.5 22.8 16.7 79 2.3 CALM 0 0 0 0 1014.8 1014.7 0.0
25/06:30am 20.4 22.3 16.8 80 2.2 SE 2 6 1 3 1014.6 1014.5 0.0
25/06:00am 20.4 22.0 16.8 80 2.2 WSW 4 6 2 3 1014.4 1014.3 0.0
25/05:30am 20.5 21.6 16.7 79 2.3 SW 6 7 3 4 1014.3 1014.2 0.0
25/05:00am 20.5 21.7 16.9 80 2.2 WSW 6 9 3 5 1014.3 1014.2 0.0
25/04:30am 20.6 21.5 16.6 78 2.4 SSE 7 9 4 5 1014.4 1014.3 0.0
25/04:00am 20.6 21.7 16.6 78 2.4 S 6 9 3 5 1014.4 1014.3 0.0
25/03:30am 20.8 21.9 16.6 77 2.5 SSE 6 7 3 4 1014.4 1014.3 0.0
25/03:00am 21.0 21.9 16.6 76 2.7 SE 7 9 4 5 1014.7 1014.6 0.0
25/02:30am 21.1 22.0 16.7 76 2.7 S 7 9 4 5 1015.0 1014.9 0.0
25/02:00am 21.4 22.4 16.8 75 2.8 SSE 7 9 4 5 1015.3 1015.2 0.0
25/01:30am 21.4 23.7 16.8 75 2.8 CALM 0 0 0 0 1015.5 1015.4 0.0
25/01:00am 21.3 22.5 16.9 76 2.7 WSW 6 7 3 4 1016.0 1015.9 0.0
25/12:30am 21.3 22.5 16.9 76 2.7 SW 6 7 3 4 1016.2 1016.1 0.0
25/12:00am 21.5 22.6 16.7 74 2.9 SSE 6 9 3 5 1016.6 1016.5 0.0
 
Date/Time
EDT
Tmp

°C
App
Tmp
°C
Dew
Point
°C
Rel
Hum
%
Delta-T

°C
Wind Press
QNH
hPa
Press
MSL
hPa
Rain
since
9 am
mm
Dir
 
Spd
km/h
Gust
km/h
Spd
kts
Gust
kts
24/11:30pm 21.7 21.1 16.6 73 3.1 SSE 15 24 8 13 1017.0 1016.9 0.0
24/11:00pm 21.8 22.2 17.2 75 2.8 S 11 15 6 8 1017.1 1017.0 0.0
24/10:30pm 21.9 22.3 17.3 75 2.8 S 11 15 6 8 1017.1 1017.0 0.0
24/10:00pm 22.1 22.2 17.5 75 2.8 S 13 19 7 10 1017.0 1016.9 0.0
24/09:30pm 22.3 22.1 17.7 75 2.9 SSE 15 20 8 11 1017.1 1017.0 0.0
24/09:00pm 22.3 22.9 17.7 75 2.8 S 11 17 6 9 1017.0 1016.9 0.0
24/08:30pm 22.4 21.9 17.8 75 2.9 SSE 17 20 9 11 1016.7 1016.6 0.0
24/08:00pm 22.5 22.2 17.4 73 3.1 S 15 20 8 11 1016.5 1016.4 0.0
24/07:30pm 22.7 21.7 17.6 73 3.2 SE 19 24 10 13 1016.5 1016.4 0.0
24/07:00pm 23.0 22.5 17.7 72 3.3 SE 17 24 9 13 1016.2 1016.1 0.0
24/06:30pm 23.2 22.6 17.6 71 3.5 SSE 17 22 9 12 1015.7 1015.6 0.0
24/06:00pm 23.4 21.4 17.4 69 3.7 SSE 24 35 13 19 1015.6 1015.5 0.0
24/05:30pm 24.1 22.2 17.6 67 4.1 SSE 24 33 13 18 1015.1 1015.0 0.0
24/05:00pm 24.7 23.7 17.9 66 4.3 SSE 20 32 11 17 1014.9 1014.8 0.0
24/04:30pm 24.8 22.8 17.3 63 4.7 SE 24 33 13 18 1014.8 1014.7 0.0
24/04:00pm 25.4 24.6 18.1 64 4.6 SE 19 26 10 14 1014.7 1014.6 0.0
24/03:30pm 25.3 24.3 18.0 64 4.6 SE 20 24 11 13 1014.6 1014.5 0.0
24/03:00pm 25.5 24.5 17.9 63 4.8 SE 20 30 11 16 1014.6 1014.5 0.0
24/02:30pm 25.6 23.6 18.3 64 4.6 SSE 26 37 14 20 1014.8 1014.7 0.0
24/02:00pm 25.9 23.9 18.3 63 4.8 SE 26 35 14 19 1014.7 1014.6 0.0
24/01:30pm 25.9 22.9 18.6 64 4.6 SE 32 41 17 22 1014.6 1014.5 0.0
24/01:00pm 25.7 22.7 19.1 67 4.2 SE 33 41 18 22 1014.2 1014.1 0.0
24/12:49pm 25.9 24.0 19.3 67 4.2 SE 28 39 15 21 1014.1 1014.0 0.0
24/12:30pm 27.0 28.1 18.8 60 5.3 S 11 19 6 10 1014.0 1013.9 0.0
24/12:00pm 27.4 29.4 20.7 67 4.4 SE 11 15 6 8 1014.1 1014.0 0.0
24/11:30am 26.5 28.6 20.1 68 4.2 SSE 9 15 5 8 1014.3 1014.2 0.0
24/11:00am 25.0 26.5 19.8 73 3.4 SSW 11 17 6 9 1014.4 1014.3 0.0
24/10:30am 25.1 27.4 19.9 73 3.4 SSE 7 11 4 6 1014.5 1014.4 0.0

Latest Capital City Observations: Canberra | Sydney | Melbourne | Brisbane | Adelaide | Perth | Hobart | Darwin

Other Formats:

Comma delimited format used in spreadsheet applications
http://www.bom.gov.au/fwo/IDN60901/IDN60901.95753.axf

JavaScript Object Notation format (JSON) in row-major order
http://www.bom.gov.au/fwo/IDN60901/IDN60901.95753.json